Time;durP1;ratioP1;P1;durP2;ratioP2;P2;SDS_P1;SDS_P2;PMS_P1;PMS_P2;Temp;Humidity;BMP_temperature;BMP_pressure;BME280_temperature;BME280_humidity;BME280_pressure;Samples;Min_cycle;Max_cycle;Signal;HPM_P1;HPM_P2
2021/01/30 00:00:48;;;;;;;;;;;18.40;38.80;;;;;;466599;256;1194;-53
2021/01/30 00:02:49;;;;;;;;;;;18.40;38.70;;;;;;470786;253;2195;-53
2021/01/30 00:04:50;;;;;;;;;;;18.40;38.80;;;;;;466638;255;1335;-53
2021/01/30 00:06:51;;;;;;;;;;;18.40;38.70;;;;;;470901;253;1232;-53
2021/01/30 00:08:53;;;;;;;;;;;18.40;38.70;;;;;;466618;255;1235;-53
2021/01/30 00:10:54;;;;;;;;;;;18.40;38.80;;;;;;470938;253;1254;-53
2021/01/30 00:12:55;;;;;;;;;;;18.40;38.80;;;;;;466706;255;1482;-53
2021/01/30 00:14:57;;;;;;;;;;;18.40;38.80;;;;;;470768;253;1282;-53
2021/01/30 00:16:58;;;;;;;;;;;18.40;38.70;;;;;;466689;255;1270;-53
2021/01/30 00:18:59;;;;;;;;;;;18.40;38.70;;;;;;470864;253;1376;-53
2021/01/30 00:21:00;;;;;;;;;;;18.40;38.70;;;;;;466821;255;1237;-53
2021/01/30 00:23:02;;;;;;;;;;;18.40;38.70;;;;;;470719;253;2168;-53
2021/01/30 00:25:03;;;;;;;;;;;18.40;38.80;;;;;;466896;255;1202;-53
2021/01/30 00:27:04;;;;;;;;;;;18.40;38.70;;;;;;470642;253;1246;-53
2021/01/30 00:29:05;;;;;;;;;;;18.40;38.70;;;;;;466588;256;1242;-53
2021/01/30 00:31:07;;;;;;;;;;;18.40;38.80;;;;;;470755;253;1203;-53
2021/01/30 00:33:08;;;;;;;;;;;18.40;38.80;;;;;;466618;255;1261;-54
2021/01/30 00:35:09;;;;;;;;;;;18.40;38.80;;;;;;470844;253;1362;-53
2021/01/30 00:37:11;;;;;;;;;;;18.40;38.70;;;;;;466549;256;1297;-53
2021/01/30 00:39:12;;;;;;;;;;;18.40;38.80;;;;;;470791;253;1185;-54
2021/01/30 00:41:13;;;;;;;;;;;18.40;38.80;;;;;;466658;255;1164;-53
2021/01/30 00:43:14;;;;;;;;;;;18.40;38.80;;;;;;470829;253;2143;-53
2021/01/30 00:45:16;;;;;;;;;;;18.40;38.80;;;;;;466662;256;1265;-53
2021/01/30 00:47:17;;;;;;;;;;;18.40;38.70;;;;;;470731;253;1238;-53
2021/01/30 00:49:18;;;;;;;;;;;18.40;38.80;;;;;;466677;255;1169;-53
2021/01/30 00:51:19;;;;;;;;;;;18.40;38.80;;;;;;470702;253;1628;-54
2021/01/30 00:53:21;;;;;;;;;;;18.40;38.70;;;;;;466626;256;1218;-54
2021/01/30 00:55:22;;;;;;;;;;;18.40;38.80;;;;;;470710;251;1374;-53
2021/01/30 00:57:23;;;;;;;;;;;18.40;38.80;;;;;;466746;255;1164;-54
2021/01/30 00:59:25;;;;;;;;;;;18.40;38.80;;;;;;470787;253;1260;-53
2021/01/30 01:01:26;;;;;;;;;;;18.40;38.80;;;;;;466731;255;1189;-53
2021/01/30 01:03:27;;;;;;;;;;;18.40;38.80;;;;;;470721;253;2238;-54
2021/01/30 01:05:28;;;;;;;;;;;18.40;38.80;;;;;;466938;255;1240;-54
2021/01/30 01:07:30;;;;;;;;;;;18.40;38.80;;;;;;470973;253;1345;-54
2021/01/30 01:09:31;;;;;;;;;;;18.40;38.70;;;;;;466670;255;1179;-53
2021/01/30 01:11:32;;;;;;;;;;;18.40;38.70;;;;;;470716;253;1242;-54
2021/01/30 01:13:33;;;;;;;;;;;18.40;38.70;;;;;;466791;255;1362;-54
2021/01/30 01:15:35;;;;;;;;;;;18.40;38.70;;;;;;470700;253;1275;-54
2021/01/30 01:17:36;;;;;;;;;;;18.40;38.70;;;;;;466651;256;1186;-54
2021/01/30 01:19:37;;;;;;;;;;;18.40;38.70;;;;;;470729;253;1483;-53
2021/01/30 01:21:39;;;;;;;;;;;18.50;38.70;;;;;;466725;255;1426;-54
2021/01/30 01:23:40;;;;;;;;;;;18.50;38.70;;;;;;470679;253;2123;-53
2021/01/30 01:25:41;;;;;;;;;;;18.50;38.70;;;;;;466748;255;1288;-53
2021/01/30 01:27:42;;;;;;;;;;;18.50;38.60;;;;;;470802;253;1171;-53
2021/01/30 01:29:44;;;;;;;;;;;18.50;38.60;;;;;;466704;255;1262;-54
2021/01/30 01:31:45;;;;;;;;;;;18.50;38.60;;;;;;470728;253;1309;-53
2021/01/30 01:33:46;;;;;;;;;;;18.50;38.60;;;;;;466730;255;1195;-54
2021/01/30 01:35:47;;;;;;;;;;;18.50;38.60;;;;;;470699;253;1294;-53
2021/01/30 01:37:50;;;;;;;;;;;18.50;38.60;;;;;;466808;255;1427;-54
2021/01/30 01:39:50;;;;;;;;;;;18.60;38.60;;;;;;470886;253;2184;-54
2021/01/30 01:41:51;;;;;;;;;;;18.60;38.60;;;;;;466684;255;1211;-53
2021/01/30 01:43:53;;;;;;;;;;;18.60;38.50;;;;;;470720;253;2204;-54
2021/01/30 01:45:54;;;;;;;;;;;18.60;38.50;;;;;;466800;255;1200;-54
2021/01/30 01:47:56;;;;;;;;;;;18.60;38.50;;;;;;470888;253;1475;-53
2021/01/30 01:49:57;;;;;;;;;;;18.60;38.50;;;;;;466756;255;1302;-54
2021/01/30 01:51:58;;;;;;;;;;;18.60;38.50;;;;;;470795;253;1161;-53
2021/01/30 01:54:00;;;;;;;;;;;18.60;38.50;;;;;;466681;255;1226;-54
2021/01/30 01:56:01;;;;;;;;;;;18.70;38.50;;;;;;470681;249;1275;-54
2021/01/30 01:58:02;;;;;;;;;;;18.70;38.50;;;;;;466665;255;1415;-53
2021/01/30 02:00:03;;;;;;;;;;;18.70;38.40;;;;;;470836;253;1289;-54
2021/01/30 02:02:05;;;;;;;;;;;18.70;38.50;;;;;;466668;256;1433;-53
2021/01/30 02:04:06;;;;;;;;;;;18.70;38.40;;;;;;470757;253;2199;-54
2021/01/30 02:06:07;;;;;;;;;;;18.70;38.40;;;;;;466731;255;1165;-54
2021/01/30 02:08:08;;;;;;;;;;;18.70;37.10;;;;;;470811;253;1216;-54
2021/01/30 02:10:10;;;;;;;;;;;18.70;38.30;;;;;;466602;255;1393;-54
2021/01/30 02:12:11;;;;;;;;;;;18.70;38.40;;;;;;470765;253;1171;-54
2021/01/30 02:14:12;;;;;;;;;;;18.80;38.40;;;;;;466709;255;1278;-53
2021/01/30 02:16:14;;;;;;;;;;;18.80;37.10;;;;;;470662;253;1178;-54
2021/01/30 02:18:15;;;;;;;;;;;18.80;38.40;;;;;;466647;256;1162;-53
2021/01/30 02:20:16;;;;;;;;;;;18.80;38.30;;;;;;470718;253;1504;-54
2021/01/30 02:22:17;;;;;;;;;;;18.80;38.30;;;;;;466643;255;1285;-53
2021/01/30 02:24:19;;;;;;;;;;;18.80;38.30;;;;;;470710;253;2152;-53
2021/01/30 02:26:20;;;;;;;;;;;18.80;38.30;;;;;;466616;255;1294;-54
2021/01/30 02:28:21;;;;;;;;;;;18.80;38.30;;;;;;470897;253;1197;-53
2021/01/30 02:30:22;;;;;;;;;;;18.90;38.40;;;;;;466638;255;1298;-54
2021/01/30 02:32:24;;;;;;;;;;;18.90;38.30;;;;;;470706;253;1266;-53
2021/01/30 02:34:25;;;;;;;;;;;18.90;38.30;;;;;;466748;255;1274;-54
2021/01/30 02:36:26;;;;;;;;;;;18.90;38.30;;;;;;470708;253;1193;-54
2021/01/30 02:38:28;;;;;;;;;;;18.90;38.30;;;;;;466794;255;1185;-54
2021/01/30 02:40:29;;;;;;;;;;;18.90;38.20;;;;;;470804;253;1574;-54
2021/01/30 02:42:30;;;;;;;;;;;18.90;38.20;;;;;;466620;256;2165;-54
2021/01/30 02:44:31;;;;;;;;;;;18.90;38.20;;;;;;470773;253;1296;-54
2021/01/30 02:46:33;;;;;;;;;;;18.90;38.20;;;;;;466632;256;1143;-53
2021/01/30 02:48:34;;;;;;;;;;;18.90;38.20;;;;;;470691;253;1305;-54
2021/01/30 02:50:35;;;;;;;;;;;19.00;38.20;;;;;;466671;255;1296;-53
2021/01/30 02:52:37;;;;;;;;;;;19.00;38.20;;;;;;470752;253;1245;-54
2021/01/30 02:54:38;;;;;;;;;;;19.00;38.20;;;;;;466656;255;1210;-54
2021/01/30 02:56:39;;;;;;;;;;;19.00;38.20;;;;;;470738;253;1208;-54
2021/01/30 02:58:40;;;;;;;;;;;19.00;38.20;;;;;;466679;255;1259;-54
2021/01/30 03:00:42;;;;;;;;;;;19.00;38.20;;;;;;470703;253;1245;-54
2021/01/30 03:02:44;;;;;;;;;;;19.00;38.10;;;;;;466603;255;2189;-54
2021/01/30 03:04:44;;;;;;;;;;;19.00;38.10;;;;;;470780;253;2247;-54
2021/01/30 03:06:46;;;;;;;;;;;19.00;38.10;;;;;;470906;252;1188;-54
2021/01/30 03:08:47;;;;;;;;;;;19.10;38.20;;;;;;466758;255;1347;-53
2021/01/30 03:10:48;;;;;;;;;;;19.10;38.20;;;;;;470773;247;1326;-53
2021/01/30 03:12:49;;;;;;;;;;;19.00;38.10;;;;;;466692;255;1147;-53
2021/01/30 03:14:51;;;;;;;;;;;19.10;38.10;;;;;;470878;253;1276;-54
2021/01/30 03:16:52;;;;;;;;;;;19.10;38.10;;;;;;466617;256;1180;-54
2021/01/30 03:18:53;;;;;;;;;;;19.10;38.10;;;;;;470775;253;1215;-53
2021/01/30 03:20:54;;;;;;;;;;;19.10;38.10;;;;;;466619;255;1260;-53
2021/01/30 03:22:56;;;;;;;;;;;19.10;38.10;;;;;;470715;253;2144;-54
2021/01/30 03:24:57;;;;;;;;;;;19.10;38.00;;;;;;466896;255;1381;-54
2021/01/30 03:26:58;;;;;;;;;;;19.10;38.00;;;;;;470747;253;1141;-53
2021/01/30 03:28:59;;;;;;;;;;;19.10;38.10;;;;;;466763;255;1259;-54
2021/01/30 03:31:01;;;;;;;;;;;19.10;38.00;;;;;;470830;253;1478;-53
2021/01/30 03:33:02;;;;;;;;;;;19.10;38.00;;;;;;466691;256;1343;-54
2021/01/30 03:35:03;;;;;;;;;;;19.10;38.00;;;;;;470791;253;1274;-53
2021/01/30 03:37:05;;;;;;;;;;;19.10;38.00;;;;;;466744;255;1450;-53
2021/01/30 03:39:06;;;;;;;;;;;19.20;38.00;;;;;;470709;253;1167;-53
2021/01/30 03:41:07;;;;;;;;;;;19.10;36.70;;;;;;466644;255;1421;-54
2021/01/30 03:43:09;;;;;;;;;;;19.20;38.00;;;;;;470887;253;2272;-54
2021/01/30 03:45:10;;;;;;;;;;;19.20;38.00;;;;;;466659;256;1268;-54
2021/01/30 03:47:11;;;;;;;;;;;19.20;38.00;;;;;;470727;253;1231;-54
2021/01/30 03:49:12;;;;;;;;;;;19.20;38.00;;;;;;466600;256;1360;-54
2021/01/30 03:51:14;;;;;;;;;;;19.20;38.00;;;;;;470694;253;1329;-54
2021/01/30 03:53:15;;;;;;;;;;;19.20;38.00;;;;;;466662;256;1262;-54
2021/01/30 03:55:16;;;;;;;;;;;19.20;38.00;;;;;;470870;253;1288;-53
2021/01/30 03:57:17;;;;;;;;;;;19.20;38.00;;;;;;466648;256;1173;-53
2021/01/30 03:59:19;;;;;;;;;;;19.20;37.90;;;;;;470724;253;1197;-54
2021/01/30 04:01:20;;;;;;;;;;;19.20;37.90;;;;;;466686;256;1463;-53
2021/01/30 04:03:21;;;;;;;;;;;19.30;38.00;;;;;;470784;253;2203;-54
2021/01/30 04:05:23;;;;;;;;;;;19.20;37.90;;;;;;466672;256;1381;-54
2021/01/30 04:07:24;;;;;;;;;;;19.30;37.90;;;;;;470678;253;1165;-54
2021/01/30 04:09:26;;;;;;;;;;;19.30;38.00;;;;;;466595;256;1355;-54
2021/01/30 04:11:26;;;;;;;;;;;19.30;37.90;;;;;;470744;253;1774;-53
2021/01/30 04:13:28;;;;;;;;;;;19.20;36.60;;;;;;466972;255;1215;-54
2021/01/30 04:15:29;;;;;;;;;;;19.30;37.90;;;;;;470729;253;1311;-54
2021/01/30 04:17:30;;;;;;;;;;;19.30;37.90;;;;;;466634;255;1198;-54
2021/01/30 04:19:31;;;;;;;;;;;19.30;37.90;;;;;;470758;253;1261;-53
2021/01/30 04:21:33;;;;;;;;;;;19.30;37.90;;;;;;466650;252;1336;-54
2021/01/30 04:23:34;;;;;;;;;;;19.30;37.90;;;;;;470825;253;2136;-53
2021/01/30 04:25:35;;;;;;;;;;;19.30;37.90;;;;;;466678;255;1369;-54
2021/01/30 04:27:37;;;;;;;;;;;19.30;37.80;;;;;;470777;253;1276;-53
2021/01/30 04:29:38;;;;;;;;;;;19.30;37.80;;;;;;466659;255;1259;-53
2021/01/30 04:31:39;;;;;;;;;;;19.30;37.80;;;;;;470791;253;1275;-54
2021/01/30 04:33:40;;;;;;;;;;;19.30;36.50;;;;;;466679;255;1364;-54
2021/01/30 04:35:42;;;;;;;;;;;19.40;37.90;;;;;;470836;253;1135;-53
2021/01/30 04:37:43;;;;;;;;;;;19.40;37.80;;;;;;466619;255;1306;-54
2021/01/30 04:39:44;;;;;;;;;;;19.40;37.80;;;;;;470792;253;1244;-54
2021/01/30 04:41:46;;;;;;;;;;;19.40;37.80;;;;;;466611;255;1347;-54
2021/01/30 04:43:47;;;;;;;;;;;19.40;37.80;;;;;;470769;253;2152;-53
2021/01/30 04:45:48;;;;;;;;;;;19.40;37.80;;;;;;466621;255;1240;-54
2021/01/30 04:47:49;;;;;;;;;;;19.40;37.80;;;;;;470751;253;1310;-54
2021/01/30 04:49:51;;;;;;;;;;;19.40;37.80;;;;;;466679;255;1240;-54
2021/01/30 04:51:52;;;;;;;;;;;19.40;37.80;;;;;;470741;253;1267;-54
2021/01/30 04:53:53;;;;;;;;;;;19.40;37.70;;;;;;466747;255;1164;-54
2021/01/30 04:55:54;;;;;;;;;;;19.40;37.70;;;;;;470748;253;1317;-54
2021/01/30 04:57:56;;;;;;;;;;;19.40;37.70;;;;;;466610;255;1222;-54
2021/01/30 04:59:57;;;;;;;;;;;19.40;37.70;;;;;;470938;253;1333;-53
2021/01/30 05:01:58;;;;;;;;;;;19.40;37.70;;;;;;466690;255;1228;-54
2021/01/30 05:04:00;;;;;;;;;;;19.50;37.80;;;;;;470775;253;2204;-53
2021/01/30 05:06:01;;;;;;;;;;;19.50;37.70;;;;;;466651;255;1219;-54
2021/01/30 05:08:02;;;;;;;;;;;19.50;37.70;;;;;;470864;253;1206;-53
2021/01/30 05:10:03;;;;;;;;;;;19.40;37.70;;;;;;466771;255;1161;-54
2021/01/30 05:12:05;;;;;;;;;;;19.50;37.70;;;;;;470694;253;1231;-54
2021/01/30 05:14:06;;;;;;;;;;;19.50;37.70;;;;;;466650;255;1320;-53
2021/01/30 05:16:07;;;;;;;;;;;19.50;37.60;;;;;;470786;253;1404;-54
2021/01/30 05:18:08;;;;;;;;;;;19.50;37.60;;;;;;466635;255;1201;-54
2021/01/30 05:20:10;;;;;;;;;;;19.50;37.60;;;;;;470739;253;1181;-54
2021/01/30 05:22:11;;;;;;;;;;;19.50;37.60;;;;;;466650;255;1161;-53
2021/01/30 05:24:12;;;;;;;;;;;19.50;37.70;;;;;;470706;253;2215;-53
2021/01/30 05:26:14;;;;;;;;;;;19.50;37.60;;;;;;466703;255;1238;-53
2021/01/30 05:28:15;;;;;;;;;;;19.50;37.60;;;;;;470749;253;1170;-54
2021/01/30 05:30:16;;;;;;;;;;;19.50;37.60;;;;;;466802;255;1340;-54
2021/01/30 05:32:17;;;;;;;;;;;19.50;37.60;;;;;;470724;253;1305;-54
2021/01/30 05:34:19;;;;;;;;;;;19.50;37.60;;;;;;466669;255;1349;-53
2021/01/30 05:36:20;;;;;;;;;;;19.50;37.60;;;;;;470732;253;1218;-54
2021/01/30 05:38:21;;;;;;;;;;;19.50;37.60;;;;;;466662;255;1175;-54
2021/01/30 05:40:23;;;;;;;;;;;19.50;37.60;;;;;;470745;253;1147;-54
2021/01/30 05:42:24;;;;;;;;;;;19.50;37.60;;;;;;466745;255;1246;-54
2021/01/30 05:44:25;;;;;;;;;;;19.50;37.60;;;;;;470905;253;2159;-53
2021/01/30 05:46:26;;;;;;;;;;;19.50;37.60;;;;;;466795;255;1284;-53
2021/01/30 05:48:28;;;;;;;;;;;19.60;37.70;;;;;;470746;253;1082;-54
2021/01/30 05:50:29;;;;;;;;;;;19.50;37.60;;;;;;466613;256;1170;-54
2021/01/30 05:52:30;;;;;;;;;;;19.60;37.70;;;;;;470696;253;1296;-53
2021/01/30 05:54:31;;;;;;;;;;;19.60;37.70;;;;;;466647;255;1214;-54
2021/01/30 05:56:33;;;;;;;;;;;19.60;37.70;;;;;;470755;253;1367;-54
2021/01/30 05:58:34;;;;;;;;;;;19.60;37.70;;;;;;466689;255;1556;-54
2021/01/30 06:00:35;;;;;;;;;;;19.50;36.30;;;;;;470796;253;1169;-53
2021/01/30 06:02:37;;;;;;;;;;;19.60;37.70;;;;;;466657;256;1273;-54
2021/01/30 06:04:38;;;;;;;;;;;19.60;37.60;;;;;;470687;253;2195;-54
2021/01/30 06:06:39;;;;;;;;;;;19.60;37.60;;;;;;466680;255;1313;-54
2021/01/30 06:08:40;;;;;;;;;;;19.60;37.60;;;;;;470841;253;1289;-54
2021/01/30 06:10:42;;;;;;;;;;;19.60;37.60;;;;;;466755;255;1198;-53
2021/01/30 06:12:43;;;;;;;;;;;19.60;37.60;;;;;;470737;253;1328;-54
2021/01/30 06:14:44;;;;;;;;;;;19.60;37.60;;;;;;466624;255;1169;-54
2021/01/30 06:16:45;;;;;;;;;;;19.60;37.60;;;;;;470702;253;1323;-52
2021/01/30 06:18:47;;;;;;;;;;;19.60;37.60;;;;;;466827;255;1550;-54
2021/01/30 06:20:48;;;;;;;;;;;19.60;37.60;;;;;;470739;253;1379;-53
2021/01/30 06:22:49;;;;;;;;;;;19.60;37.60;;;;;;466639;256;1367;-54
2021/01/30 06:24:51;;;;;;;;;;;19.60;37.50;;;;;;470819;253;2203;-53
2021/01/30 06:26:52;;;;;;;;;;;19.70;37.60;;;;;;466709;255;1292;-53
2021/01/30 06:28:53;;;;;;;;;;;19.70;37.60;;;;;;470693;253;1221;-54
2021/01/30 06:30:54;;;;;;;;;;;19.70;37.60;;;;;;466713;255;1164;-53
2021/01/30 06:32:56;;;;;;;;;;;19.70;36.30;;;;;;470858;253;1325;-54
2021/01/30 06:34:57;;;;;;;;;;;19.70;37.60;;;;;;466626;256;1295;-54
2021/01/30 06:36:58;;;;;;;;;;;19.70;37.60;;;;;;470893;253;1194;-53
2021/01/30 06:39:00;;;;;;;;;;;19.70;37.60;;;;;;466767;253;1312;-54
2021/01/30 06:41:01;;;;;;;;;;;19.70;37.60;;;;;;470839;253;1214;-54
2021/01/30 06:43:02;;;;;;;;;;;19.70;37.60;;;;;;466697;255;1304;-53
2021/01/30 06:45:03;;;;;;;;;;;19.70;37.50;;;;;;470765;253;2132;-54
2021/01/30 06:47:05;;;;;;;;;;;19.70;37.60;;;;;;466655;256;1561;-54
2021/01/30 06:49:06;;;;;;;;;;;19.70;37.50;;;;;;470719;253;1170;-53
2021/01/30 06:51:07;;;;;;;;;;;19.70;36.20;;;;;;466570;256;1272;-54
2021/01/30 06:53:09;;;;;;;;;;;19.70;37.60;;;;;;470715;253;1254;-53
2021/01/30 06:55:10;;;;;;;;;;;19.70;37.50;;;;;;466688;255;1211;-54
2021/01/30 06:57:11;;;;;;;;;;;19.70;37.50;;;;;;470823;253;1300;-54
2021/01/30 06:59:12;;;;;;;;;;;19.70;37.50;;;;;;466757;254;1235;-54
2021/01/30 07:01:14;;;;;;;;;;;19.70;37.70;;;;;;470945;253;1250;-54
2021/01/30 07:03:15;;;;;;;;;;;19.70;37.40;;;;;;466701;255;1181;-53
2021/01/30 07:05:17;;;;;;;;;;;19.80;37.40;;;;;;470867;253;2207;-54
2021/01/30 07:07:18;;;;;;;;;;;19.90;37.30;;;;;;466681;255;1387;-54
2021/01/30 07:09:19;;;;;;;;;;;19.90;37.20;;;;;;470711;253;1167;-53
2021/01/30 07:11:20;;;;;;;;;;;19.80;37.20;;;;;;466594;256;1330;-53
2021/01/30 07:13:22;;;;;;;;;;;19.80;37.30;;;;;;470719;253;1289;-54
2021/01/30 07:15:23;;;;;;;;;;;19.80;37.30;;;;;;466766;255;1175;-53
2021/01/30 07:17:25;;;;;;;;;;;19.80;37.40;;;;;;470713;253;1212;-53
2021/01/30 07:19:26;;;;;;;;;;;19.70;37.40;;;;;;466701;255;1377;-53
2021/01/30 07:21:27;;;;;;;;;;;19.70;36.10;;;;;;470694;253;1350;-54
2021/01/30 07:23:28;;;;;;;;;;;19.70;37.50;;;;;;466642;255;1155;-53
2021/01/30 07:25:30;;;;;;;;;;;19.70;37.60;;;;;;470847;253;2167;-53
2021/01/30 07:27:31;;;;;;;;;;;19.70;37.60;;;;;;466638;255;1263;-54
2021/01/30 07:29:32;;;;;;;;;;;19.60;37.60;;;;;;470753;253;1238;-53
2021/01/30 07:31:34;;;;;;;;;;;19.60;37.70;;;;;;466643;256;1555;-53
2021/01/30 07:33:35;;;;;;;;;;;19.60;37.70;;;;;;470835;253;1160;-54
2021/01/30 07:35:36;;;;;;;;;;;19.50;37.60;;;;;;466624;256;1296;-53
2021/01/30 07:37:37;;;;;;;;;;;19.50;37.70;;;;;;470778;253;1274;-53
2021/01/30 07:39:39;;;;;;;;;;;19.50;37.70;;;;;;466678;255;1252;-53
2021/01/30 07:41:40;;;;;;;;;;;19.40;37.70;;;;;;470665;253;1355;-53
2021/01/30 07:43:42;;;;;;;;;;;19.40;37.80;;;;;;466701;255;1310;-53
2021/01/30 07:45:43;;;;;;;;;;;19.40;37.80;;;;;;470764;250;2205;-53
2021/01/30 07:47:44;;;;;;;;;;;19.40;37.80;;;;;;466731;255;1578;-53
2021/01/30 07:49:45;;;;;;;;;;;19.40;37.90;;;;;;470734;253;1244;-54
2021/01/30 07:51:47;;;;;;;;;;;19.40;37.90;;;;;;466661;255;1332;-53
2021/01/30 07:53:48;;;;;;;;;;;19.30;37.90;;;;;;470799;253;1185;-53
2021/01/30 07:55:49;;;;;;;;;;;19.30;38.00;;;;;;466640;255;1167;-53
2021/01/30 07:57:56;;;;;;;;;;;19.30;38.00;;;;;;470666;253;1203;-53
2021/01/30 07:59:52;;;;;;;;;;;19.30;38.00;;;;;;466269;256;2337;-53
2021/01/30 08:01:54;;;;;;;;;;;19.30;38.00;;;;;;470694;253;1240;-53
2021/01/30 08:03:55;;;;;;;;;;;19.30;38.00;;;;;;466639;255;1198;-53
2021/01/30 08:05:56;;;;;;;;;;;19.30;38.10;;;;;;470841;253;2143;-54
2021/01/30 08:07:58;;;;;;;;;;;19.30;38.10;;;;;;466608;256;1275;-54
2021/01/30 08:09:59;;;;;;;;;;;19.30;38.10;;;;;;470845;253;1156;-54
2021/01/30 08:12:00;;;;;;;;;;;19.20;38.10;;;;;;466621;255;1296;-54
2021/01/30 08:14:01;;;;;;;;;;;19.20;36.80;;;;;;470644;253;1260;-53
2021/01/30 08:16:03;;;;;;;;;;;19.20;38.10;;;;;;466589;255;1221;-53
2021/01/30 08:18:04;;;;;;;;;;;19.20;38.10;;;;;;470653;253;1225;-53
2021/01/30 08:20:05;;;;;;;;;;;19.20;36.80;;;;;;466698;255;1435;-53
2021/01/30 08:22:07;;;;;;;;;;;19.20;38.20;;;;;;470948;253;1262;-53
2021/01/30 08:24:08;;;;;;;;;;;19.20;38.20;;;;;;466645;256;1520;-54
2021/01/30 08:26:09;;;;;;;;;;;19.20;38.20;;;;;;470790;253;2202;-54
2021/01/30 08:28:11;;;;;;;;;;;19.10;38.20;;;;;;466682;255;1277;-53
2021/01/30 08:30:12;;;;;;;;;;;19.10;38.20;;;;;;470840;253;1182;-54
2021/01/30 08:32:13;;;;;;;;;;;19.10;38.20;;;;;;466625;256;1617;-54
2021/01/30 08:34:15;;;;;;;;;;;19.10;38.20;;;;;;470866;253;1133;-53
2021/01/30 08:36:16;;;;;;;;;;;19.10;38.20;;;;;;466717;255;1356;-53
2021/01/30 08:38:17;;;;;;;;;;;19.10;38.20;;;;;;470719;253;1219;-54
2021/01/30 08:40:19;;;;;;;;;;;19.10;38.30;;;;;;466617;256;1218;-53
2021/01/30 08:42:22;;;;;;;;;;;19.00;38.20;;;;;;470710;253;1310;-53
2021/01/30 08:44:21;;;;;;;;;;;19.10;38.30;;;;;;466721;255;2253;-53
2021/01/30 08:46:23;;;;;;;;;;;19.10;38.30;;;;;;470700;253;2122;-54
2021/01/30 08:48:24;;;;;;;;;;;19.10;38.30;;;;;;466613;256;1275;-53
2021/01/30 08:50:25;;;;;;;;;;;19.00;38.30;;;;;;470692;253;1236;-53
2021/01/30 08:52:27;;;;;;;;;;;19.00;38.30;;;;;;466610;256;1323;-53
2021/01/30 08:54:28;;;;;;;;;;;19.00;38.30;;;;;;470838;253;1182;-54
2021/01/30 08:56:29;;;;;;;;;;;19.00;38.30;;;;;;466632;255;1308;-53
2021/01/30 08:58:31;;;;;;;;;;;19.00;38.40;;;;;;470678;249;1376;-53
2021/01/30 09:00:32;;;;;;;;;;;19.00;38.40;;;;;;466700;255;1320;-53
2021/01/30 09:02:34;;;;;;;;;;;19.00;38.40;;;;;;470948;253;1153;-53
2021/01/30 09:04:34;;;;;;;;;;;19.00;38.40;;;;;;466698;255;1255;-53
2021/01/30 09:06:36;;;;;;;;;;;19.00;38.40;;;;;;470704;253;2187;-54
2021/01/30 09:08:37;;;;;;;;;;;19.00;38.40;;;;;;466658;255;1281;-53
2021/01/30 09:10:38;;;;;;;;;;;18.90;38.40;;;;;;470736;253;1154;-54
2021/01/30 09:12:40;;;;;;;;;;;18.90;38.30;;;;;;466622;255;1206;-53
2021/01/30 09:14:41;;;;;;;;;;;19.00;38.40;;;;;;470806;253;1300;-53
2021/01/30 09:16:42;;;;;;;;;;;19.00;38.40;;;;;;466599;256;1325;-54
2021/01/30 09:18:43;;;;;;;;;;;18.90;38.40;;;;;;470909;253;1289;-53
2021/01/30 09:20:45;;;;;;;;;;;18.90;38.40;;;;;;466671;255;1273;-53
2021/01/30 09:22:46;;;;;;;;;;;18.90;38.40;;;;;;470726;253;1318;-53
2021/01/30 09:24:49;;;;;;;;;;;18.90;38.40;;;;;;466698;255;2201;-53
2021/01/30 09:26:50;;;;;;;;;;;18.90;38.40;;;;;;470701;253;1318;-53
2021/01/30 09:28:52;;;;;;;;;;;18.90;38.40;;;;;;466637;256;1310;-53
2021/01/30 09:30:53;;;;;;;;;;;18.90;38.40;;;;;;470741;253;1203;-53
2021/01/30 09:32:54;;;;;;;;;;;18.90;38.40;;;;;;466908;255;1428;-53
2021/01/30 09:34:55;;;;;;;;;;;18.90;37.10;;;;;;470997;253;1531;-54
2021/01/30 09:36:57;;;;;;;;;;;18.90;38.40;;;;;;466681;255;1172;-53
2021/01/30 09:38:59;;;;;;;;;;;18.90;38.40;;;;;;470775;253;1261;-54
2021/01/30 09:41:00;;;;;;;;;;;18.90;38.40;;;;;;466704;255;1205;-54
2021/01/30 09:43:02;;;;;;;;;;;18.90;38.50;;;;;;470728;253;1204;-53
2021/01/30 09:45:03;;;;;;;;;;;18.90;38.40;;;;;;466630;255;2205;-53
2021/01/30 09:47:04;;;;;;;;;;;18.90;38.50;;;;;;470736;253;1268;-53
2021/01/30 09:49:05;;;;;;;;;;;18.90;38.50;;;;;;466614;256;1315;-54
2021/01/30 09:51:07;;;;;;;;;;;18.90;38.50;;;;;;470806;253;1164;-53
2021/01/30 09:53:08;;;;;;;;;;;18.90;38.50;;;;;;466584;255;1342;-53
2021/01/30 09:55:09;;;;;;;;;;;18.80;38.40;;;;;;470747;253;1231;-53
2021/01/30 09:57:11;;;;;;;;;;;18.90;38.50;;;;;;466638;255;1190;-53
2021/01/30 09:59:12;;;;;;;;;;;18.90;38.50;;;;;;470875;253;1332;-53
2021/01/30 10:01:13;;;;;;;;;;;18.90;38.50;;;;;;466705;255;1161;-53
2021/01/30 10:03:14;;;;;;;;;;;18.90;38.50;;;;;;470735;253;1330;-53
2021/01/30 10:05:16;;;;;;;;;;;18.80;38.40;;;;;;466711;255;2158;-53
2021/01/30 10:07:17;;;;;;;;;;;18.80;37.20;;;;;;470716;253;1286;-53
2021/01/30 10:09:18;;;;;;;;;;;18.80;38.50;;;;;;466674;255;1169;-53
2021/01/30 10:11:20;;;;;;;;;;;18.80;38.40;;;;;;470718;253;1202;-53
2021/01/30 10:13:21;;;;;;;;;;;18.80;38.40;;;;;;466797;255;1251;-53
2021/01/30 10:15:22;;;;;;;;;;;18.80;38.40;;;;;;470864;253;1279;-53
2021/01/30 10:17:23;;;;;;;;;;;18.80;37.10;;;;;;466727;255;1154;-53
2021/01/30 10:19:25;;;;;;;;;;;18.80;38.40;;;;;;470731;253;1243;-53
2021/01/30 10:21:26;;;;;;;;;;;18.80;38.40;;;;;;466687;255;1236;-54
2021/01/30 10:23:27;;;;;;;;;;;18.80;38.40;;;;;;470699;253;1240;-53
2021/01/30 10:25:28;;;;;;;;;;;18.80;38.40;;;;;;466689;255;2142;-53
2021/01/30 10:27:30;;;;;;;;;;;18.80;38.40;;;;;;470746;253;1173;-53
2021/01/30 10:29:31;;;;;;;;;;;18.80;38.40;;;;;;466685;255;1270;-53
2021/01/30 10:31:32;;;;;;;;;;;18.80;37.10;;;;;;470685;253;1266;-53
2021/01/30 10:33:34;;;;;;;;;;;18.80;38.40;;;;;;466629;255;1267;-54
2021/01/30 10:35:35;;;;;;;;;;;18.80;38.40;;;;;;470659;253;1100;-53
2021/01/30 10:37:36;;;;;;;;;;;18.80;38.50;;;;;;466714;255;1461;-54
2021/01/30 10:39:37;;;;;;;;;;;18.70;37.20;;;;;;470900;253;1237;-53
2021/01/30 10:41:39;;;;;;;;;;;18.70;38.60;;;;;;466621;255;1387;-53
2021/01/30 10:43:40;;;;;;;;;;;18.70;38.70;;;;;;470705;253;1244;-53
2021/01/30 10:45:41;;;;;;;;;;;18.60;38.70;;;;;;466572;255;2201;-53
2021/01/30 10:47:42;;;;;;;;;;;18.60;38.80;;;;;;470918;253;1243;-53
2021/01/30 10:49:44;;;;;;;;;;;18.60;38.90;;;;;;466746;255;1268;-53
2021/01/30 10:51:45;;;;;;;;;;;18.50;38.90;;;;;;470629;253;1237;-54
2021/01/30 10:53:46;;;;;;;;;;;18.50;39.00;;;;;;466595;256;1232;-53
2021/01/30 10:55:48;;;;;;;;;;;18.40;39.00;;;;;;470749;253;1255;-54
2021/01/30 10:57:49;;;;;;;;;;;18.40;39.10;;;;;;466655;256;1082;-53
2021/01/30 10:59:50;;;;;;;;;;;18.40;39.20;;;;;;470764;253;1401;-53
2021/01/30 11:01:51;;;;;;;;;;;18.30;39.20;;;;;;466609;256;1241;-53
2021/01/30 11:03:53;;;;;;;;;;;18.30;39.20;;;;;;470751;253;1429;-53
2021/01/30 11:05:54;;;;;;;;;;;18.30;39.30;;;;;;466596;255;2154;-54
2021/01/30 11:07:55;;;;;;;;;;;18.30;39.30;;;;;;470845;253;1254;-53
2021/01/30 11:09:56;;;;;;;;;;;18.20;39.30;;;;;;466659;255;1341;-53
2021/01/30 11:11:58;;;;;;;;;;;18.20;39.40;;;;;;470712;253;1107;-53
2021/01/30 11:13:59;;;;;;;;;;;18.20;39.50;;;;;;466790;255;1293;-53
2021/01/30 11:16:01;;;;;;;;;;;18.20;39.50;;;;;;470762;253;1617;-54
2021/01/30 11:18:02;;;;;;;;;;;18.10;39.50;;;;;;466611;256;1154;-53
2021/01/30 11:20:04;;;;;;;;;;;18.10;39.50;;;;;;470707;253;1257;-53
2021/01/30 11:22:05;;;;;;;;;;;18.10;39.60;;;;;;466643;255;2290;-54
2021/01/30 11:24:06;;;;;;;;;;;18.10;39.50;;;;;;470755;253;1237;-53
2021/01/30 11:26:07;;;;;;;;;;;18.20;39.50;;;;;;466592;256;2209;-54
2021/01/30 11:28:08;;;;;;;;;;;18.20;39.40;;;;;;470694;253;1271;-53
2021/01/30 11:30:10;;;;;;;;;;;18.20;39.40;;;;;;466710;255;1323;-53
2021/01/30 11:32:11;;;;;;;;;;;18.20;39.30;;;;;;470781;253;1178;-53
2021/01/30 11:34:12;;;;;;;;;;;18.30;39.30;;;;;;466587;256;1228;-53
2021/01/30 11:36:16;;;;;;;;;;;18.30;39.30;;;;;;470700;253;1252;-54
2021/01/30 11:38:16;;;;;;;;;;;18.30;39.30;;;;;;466551;255;2177;-54
2021/01/30 11:40:16;;;;;;;;;;;18.30;39.20;;;;;;470660;253;2372;-54
2021/01/30 11:42:17;;;;;;;;;;;18.30;39.20;;;;;;466634;255;1201;-53
2021/01/30 11:44:19;;;;;;;;;;;18.40;39.20;;;;;;470711;253;1239;-53
2021/01/30 11:46:20;;;;;;;;;;;18.40;39.10;;;;;;466615;255;2137;-53
2021/01/30 11:48:21;;;;;;;;;;;18.40;39.10;;;;;;470746;253;1169;-53
2021/01/30 11:50:22;;;;;;;;;;;18.40;39.10;;;;;;466778;255;1394;-53
2021/01/30 11:52:24;;;;;;;;;;;18.40;39.00;;;;;;470753;253;1122;-54
2021/01/30 11:54:25;;;;;;;;;;;18.50;39.00;;;;;;466643;256;1269;-53
2021/01/30 11:56:26;;;;;;;;;;;18.50;39.00;;;;;;470795;253;1262;-54